Time;durP1;ratioP1;P1;durP2;ratioP2;P2;SDS_P1;SDS_P2;PMS_P1;PMS_P2;Temp;Humidity;BMP_temperature;BMP_pressure;BME280_temperature;BME280_humidity;BME280_pressure;Samples;Min_cycle;Max_cycle;Signal;HPM_P1;HPM_P2
2022/06/16 00:04:13;;;;;;;10.02;4.80;;;;;;;14.85;70.17;101634.13;10463880;28;20064;-83
2022/06/16 00:09:13;;;;;;;8.63;4.82;;;;;;;14.64;70.97;101634.09;10411657;28;20055;-82
2022/06/16 00:14:14;;;;;;;7.63;4.63;;;;;;;14.49;72.05;101644.84;10433618;28;20051;-84
2022/06/16 00:19:15;;;;;;;8.48;4.47;;;;;;;14.43;71.65;101652.47;10452498;28;20490;-83
2022/06/16 00:24:16;;;;;;;9.73;5.07;;;;;;;14.42;71.72;101643.69;10429413;28;20033;-83
2022/06/16 00:29:16;;;;;;;8.95;6.18;;;;;;;14.28;71.29;101640.44;10427847;28;20116;-82
2022/06/16 00:34:17;;;;;;;11.05;5.65;;;;;;;14.22;71.99;101632.25;10426827;28;20045;-82
2022/06/16 00:39:17;;;;;;;8.77;5.20;;;;;;;14.25;72.18;101621.84;10450905;28;20048;-85
2022/06/16 00:44:41;;;;;;;8.93;4.45;;;;;;;14.37;71.07;101637.31;10468145;28;20035;-83
2022/06/16 00:49:42;;;;;;;9.68;5.22;;;;;;;14.44;70.94;101634.13;10469171;28;20117;-81
2022/06/16 00:54:51;;;;;;;5.35;4.22;;;;;;;14.56;69.63;101633.75;10448998;28;20040;-83
2022/06/16 00:59:51;;;;;;;19.67;4.18;;;;;;;14.44;71.06;101631.50;10484690;28;20424;-83
2022/06/16 01:04:52;;;;;;;8.38;4.60;;;;;;;14.33;70.67;101646.81;10428574;28;20040;-83
2022/06/16 01:09:53;;;;;;;7.03;4.32;;;;;;;14.33;70.33;101644.16;10465835;28;20345;-83
2022/06/16 01:15:15;;;;;;;8.15;6.57;;;;;;;14.19;71.44;101640.94;10408506;28;20037;-83
2022/06/16 01:20:39;;;;;;;6.88;4.80;;;;;;;14.03;71.55;101647.22;10402176;28;20401;-83
2022/06/16 01:26:17;;;;;;;11.35;5.47;;;;;;;13.78;72.16;101659.22;10466355;28;20128;-81
2022/06/16 01:31:26;;;;;;;7.88;5.43;;;;;;;13.42;73.55;101672.41;10441883;28;20053;-83
2022/06/16 01:36:51;;;;;;;10.63;5.80;;;;;;;13.18;75.05;101679.97;10465223;28;20443;-83
2022/06/16 01:41:56;;;;;;;10.50;5.07;;;;;;;12.96;76.06;101680.59;10423486;28;20037;-83
2022/06/16 01:47:00;;;;;;;11.15;6.43;;;;;;;12.80;76.23;101678.94;10410427;28;20175;-83
2022/06/16 01:52:38;;;;;;;12.88;8.07;;;;;;;12.46;77.18;101694.72;10418087;28;20041;-83
2022/06/16 01:57:45;;;;;;;8.60;6.65;;;;;;;12.25;78.50;101689.22;10369785;28;20032;-83
2022/06/16 02:02:53;;;;;;;11.70;6.43;;;;;;;12.02;79.00;101704.59;10449580;28;20079;-83
2022/06/16 02:08:17;;;;;;;10.63;6.68;;;;;;;11.82;79.46;101693.00;10429598;28;20183;-84
2022/06/16 02:13:21;;;;;;;9.77;6.88;;;;;;;11.73;81.02;101703.84;10433116;28;20152;-83
2022/06/16 02:18:24;;;;;;;14.05;8.30;;;;;;;11.62;81.68;101699.72;10432858;28;20045;-83
2022/06/16 02:23:24;;;;;;;11.95;7.57;;;;;;;11.48;81.81;101698.03;10432269;28;20033;-84
2022/06/16 02:28:25;;;;;;;9.68;7.65;;;;;;;11.34;83.09;101695.53;10433558;28;20145;-83
2022/06/16 02:33:44;;;;;;;17.95;6.95;;;;;;;11.27;83.56;101703.84;10431613;28;20527;-84
2022/06/16 02:38:48;;;;;;;10.07;6.30;;;;;;;11.36;82.75;101704.38;10448593;28;20048;-83
2022/06/16 02:44:07;;;;;;;9.15;6.05;;;;;;;11.21;83.09;101701.78;10450392;28;20048;-83
2022/06/16 02:49:13;;;;;;;8.38;5.78;;;;;;;11.11;83.77;101715.16;10449938;28;20052;-81
2022/06/16 02:54:20;;;;;;;12.13;6.38;;;;;;;10.97;83.72;101728.34;10447962;28;20094;-82
2022/06/16 02:59:24;;;;;;;12.18;7.63;;;;;;;10.83;84.04;101735.34;10430747;28;20033;-83
2022/06/16 03:04:35;;;;;;;9.45;5.97;;;;;;;10.75;84.46;101740.94;10431593;28;20033;-83
2022/06/16 03:09:37;;;;;;;15.90;8.77;;;;;;;10.83;85.26;101739.69;10456866;28;20036;-83
2022/06/16 03:14:37;;;;;;;11.73;8.75;;;;;;;10.91;85.95;101751.53;10446949;28;20518;-83
2022/06/16 03:19:38;;;;;;;13.07;10.38;;;;;;;11.06;86.34;101767.25;10446665;28;20029;-83
2022/06/16 03:24:38;;;;;;;16.52;9.60;;;;;;;11.17;86.26;101765.28;10453509;28;20183;-83
2022/06/16 03:29:39;;;;;;;10.32;7.88;;;;;;;11.18;86.32;101768.81;10470529;28;20543;-83
2022/06/16 03:34:40;;;;;;;11.85;7.70;;;;;;;11.05;85.67;101760.22;10460137;28;20037;-82
2022/06/16 03:39:40;;;;;;;13.73;8.30;;;;;;;10.93;85.99;101759.47;10448267;28;20076;-83
2022/06/16 03:44:41;;;;;;;9.55;7.38;;;;;;;10.83;86.52;101772.00;10473947;28;20032;-83
2022/06/16 03:49:41;;;;;;;12.50;8.75;;;;;;;10.90;86.21;101778.53;10437101;28;20039;-82
2022/06/16 03:54:42;;;;;;;11.05;8.00;;;;;;;10.85;85.81;101779.97;10441585;28;20445;-82
2022/06/16 03:59:42;;;;;;;14.52;9.48;;;;;;;10.77;86.49;101782.09;10429579;28;20041;-83
2022/06/16 04:04:43;;;;;;;16.25;10.10;;;;;;;10.78;86.55;101781.28;10454474;28;20510;-83
2022/06/16 04:09:43;;;;;;;15.00;10.40;;;;;;;10.72;87.09;101775.69;10465283;28;20060;-82
2022/06/16 04:14:44;;;;;;;12.50;8.63;;;;;;;10.71;87.04;101776.50;10451381;28;20392;-82
2022/06/16 04:25:04;;;;;;;17.50;10.38;;;;;;;11.10;88.82;101798.06;10429997;28;20036;-78
2022/06/16 04:30:06;;;;;;;17.17;11.20;;;;;;;11.55;89.53;101807.69;10465559;28;20041;-79
2022/06/16 04:35:07;;;;;;;14.43;10.33;;;;;;;11.93;88.62;101815.97;10450892;28;20040;-78
2022/06/16 04:40:09;;;;;;;14.07;9.82;;;;;;;12.42;87.03;101830.97;10430789;28;20041;-80
2022/06/16 04:45:10;;;;;;;16.63;9.80;;;;;;;12.80;83.18;101819.03;10443561;28;20507;-81
2022/06/16 04:50:11;;;;;;;13.40;10.02;;;;;;;13.27;79.65;101825.00;10425962;28;20052;-84
2022/06/16 04:55:12;;;;;;;12.20;8.57;;;;;;;14.26;72.67;101836.94;10408107;28;20035;-84
2022/06/16 05:00:15;;;;;;;13.00;8.70;;;;;;;14.94;69.97;101840.09;10408797;28;20036;-83
2022/06/16 05:05:15;;;;;;;15.07;7.53;;;;;;;15.50;67.12;101842.53;10423826;28;20044;-82
2022/06/16 05:10:17;;;;;;;13.32;7.70;;;;;;;16.44;63.82;101849.91;10408691;28;20793;-81
2022/06/16 05:15:17;;;;;;;11.97;8.47;;;;;;;17.01;61.01;101845.91;10408108;28;20055;-80
2022/06/16 05:20:18;;;;;;;14.05;6.60;;;;;;;17.64;58.88;101856.91;10415709;28;21227;-82
2022/06/16 05:25:20;;;;;;;9.68;6.18;;;;;;;18.13;56.46;101857.69;10464829;28;20036;-85
2022/06/16 05:30:20;;;;;;;10.90;7.77;;;;;;;18.38;55.79;101858.47;10464808;28;20036;-86
2022/06/16 05:35:21;;;;;;;12.17;6.10;;;;;;;18.87;54.45;101859.03;10463768;28;20071;-86
2022/06/16 05:40:21;;;;;;;13.17;4.87;;;;;;;19.67;51.55;101860.41;10481681;28;20430;-81
2022/06/16 05:45:22;;;;;;;9.77;5.10;;;;;;;20.48;48.74;101868.56;10399793;28;20043;-81
2022/06/16 05:50:22;;;;;;;7.07;4.10;;;;;;;21.38;44.96;101869.53;10436061;28;20047;-81
2022/06/16 05:55:23;;;;;;;6.70;4.60;;;;;;;21.27;44.75;101882.63;10477182;28;20407;-79
2022/06/16 06:00:23;;;;;;;8.77;4.40;;;;;;;21.30;46.14;101890.69;10482790;28;20044;-79
2022/06/16 06:05:24;;;;;;;7.80;4.37;;;;;;;22.08;43.22;101897.41;10477013;28;20472;-76
2022/06/16 06:21:03;;;;;;;6.90;3.63;;;;;;;23.63;38.68;101903.94;10486220;28;20392;-78
2022/06/16 06:26:04;;;;;;;10.77;3.77;;;;;;;24.50;35.17;101908.22;10481057;28;20068;-79
2022/06/16 06:31:04;;;;;;;7.70;3.40;;;;;;;24.46;38.54;101909.97;10475456;28;20472;-78
2022/06/16 06:36:05;;;;;;;8.07;3.10;;;;;;;25.11;33.00;101912.09;10420330;28;20488;-79
2022/06/16 06:41:06;;;;;;;4.85;2.67;;;;;;;25.38;36.18;101913.06;10439095;28;20116;-79
2022/06/16 06:46:08;;;;;;;6.15;2.97;;;;;;;25.90;33.63;101914.06;10440360;28;20037;-79
2022/06/16 06:51:08;;;;;;;4.60;2.45;;;;;;;25.73;33.76;101914.09;10425133;28;20022;-80
2022/06/16 06:56:09;;;;;;;3.90;2.50;;;;;;;25.76;32.87;101922.13;10430786;28;20112;-78
2022/06/16 07:01:10;;;;;;;4.88;2.92;;;;;;;26.02;34.52;101930.16;10467359;28;20036;-81
2022/06/16 07:06:10;;;;;;;5.30;2.63;;;;;;;26.52;31.62;101932.84;10480873;28;20043;-80
2022/06/16 07:11:11;;;;;;;5.07;2.53;;;;;;;26.83;32.75;101935.47;10470351;28;20512;-80
2022/06/16 07:16:11;;;;;;;;;;;;;;;27.56;31.71;101937.84;10469703;28;20099;-79
2022/06/16 07:21:12;;;;;;;5.40;2.63;;;;;;;28.19;28.79;101949.03;10487235;28;20376;-77
2022/06/16 07:26:12;;;;;;;;;;;;;;;28.25;27.92;101943.59;10487868;28;20044;-80
2022/06/16 07:31:13;;;;;;;4.27;2.20;;;;;;;28.35;28.00;101947.97;10487665;28;19928;-78
2022/06/16 07:36:14;;;;;;;7.10;2.80;;;;;;;28.33;28.06;101965.06;10475381;28;20037;-75
2022/06/16 07:41:34;;;;;;;3.10;2.15;;;;;;;28.38;28.43;101966.78;10458358;28;20041;-78
2022/06/16 07:46:35;;;;;;;3.38;1.50;;;;;;;28.94;27.99;101981.53;10433500;28;20049;-77
2022/06/16 07:51:36;;;;;;;;;;;;;;;29.32;26.18;101982.84;10428086;28;20047;-78
2022/06/16 07:56:37;;;;;;;6.77;2.00;;;;;;;29.09;26.30;101981.34;10464768;28;19920;-80
2022/06/16 08:01:37;;;;;;;5.80;1.90;;;;;;;29.15;28.60;101999.22;10448175;28;20036;-80
2022/06/16 08:06:38;;;;;;;7.55;2.20;;;;;;;29.48;27.92;101991.63;10486509;28;20136;-80
2022/06/16 08:16:58;;;;;;;3.70;1.50;;;;;;;29.64;25.13;101989.63;10456072;28;20472;-79
2022/06/16 08:21:58;;;;;;;3.53;1.77;;;;;;;29.68;25.96;101999.44;10449885;28;20119;-79
2022/06/16 08:27:02;;;;;;;3.67;1.30;;;;;;;29.94;25.09;102005.34;10468116;28;20855;-81
2022/06/16 08:32:03;;;;;;;2.60;1.33;;;;;;;29.30;26.22;102007.09;10466704;28;20032;-82
2022/06/16 08:37:04;;;;;;;;;;;;;;;29.93;25.18;102003.56;10449566;28;20064;-80
2022/06/16 08:42:27;;;;;;;5.07;1.90;;;;;;;30.09;25.70;102005.13;10467595;28;19927;-78
2022/06/16 08:47:36;;;;;;;4.50;1.95;;;;;;;30.06;26.59;101997.09;10466277;28;20558;-78
2022/06/16 08:52:40;;;;;;;6.32;2.22;;;;;;;30.68;25.76;102004.13;10458935;28;20487;-80
2022/06/16 08:57:53;;;;;;;4.93;1.30;;;;;;;30.22;26.49;102015.72;10482597;28;20033;-80
2022/06/16 09:03:07;;;;;;;3.65;1.48;;;;;;;30.38;26.58;102021.78;10467109;28;20492;-80
2022/06/16 09:08:15;;;;;;;4.35;1.42;;;;;;;30.33;23.88;102029.94;10482449;28;20040;-80
2022/06/16 09:13:50;;;;;;;3.75;1.35;;;;;;;30.69;25.68;102032.94;10481821;28;20037;-80
2022/06/16 09:19:06;;;;;;;5.18;1.67;;;;;;;30.92;25.37;102045.13;10465516;28;20099;-80
2022/06/16 09:24:38;;;;;;;2.17;1.13;;;;;;;30.95;25.65;102052.28;10465707;28;20121;-81
2022/06/16 09:30:02;;;;;;;6.15;2.60;;;;;;;30.87;26.42;102061.44;10448144;28;20075;-80
2022/06/16 09:35:32;;;;;;;3.17;1.52;;;;;;;31.01;24.31;102074.66;10481428;28;20068;-80
2022/06/16 09:40:45;;;;;;;6.65;1.60;;;;;;;30.96;24.29;102070.28;10495852;28;20115;-80
2022/06/16 09:45:50;;;;;;;6.38;2.60;;;;;;;30.84;24.69;102072.31;10482001;28;20025;-80
2022/06/16 09:51:04;;;;;;;4.80;1.67;;;;;;;30.66;24.53;102065.41;10481659;28;20028;-80
2022/06/16 09:56:16;;;;;;;5.40;2.42;;;;;;;30.83;24.05;102078.63;10481813;28;20111;-80
2022/06/16 10:01:19;;;;;;;5.93;2.20;;;;;;;30.97;25.47;102077.47;10464248;28;20388;-79
2022/06/16 10:06:36;;;;;;;3.47;1.83;;;;;;;31.59;25.39;102066.31;10464978;28;20075;-80
2022/06/16 10:11:47;;;;;;;3.75;1.77;;;;;;;31.59;24.40;102058.19;10449489;28;20395;-80
2022/06/16 10:16:58;;;;;;;6.53;2.67;;;;;;;31.51;23.76;102065.59;10464243;28;20044;-80
2022/06/16 10:21:59;;;;;;;7.63;2.80;;;;;;;31.43;25.89;102056.75;10480964;28;20062;-80
2022/06/16 10:27:00;;;;;;;8.73;3.15;;;;;;;31.49;24.88;102056.59;10453361;28;20056;-80
2022/06/16 10:32:01;;;;;;;13.45;3.13;;;;;;;31.32;25.60;102065.09;10455167;28;20044;-79
2022/06/16 10:37:18;;;;;;;7.43;3.05;;;;;;;31.52;24.91;102069.19;10471693;28;20032;-78
2022/06/16 10:42:23;;;;;;;4.32;2.20;;;;;;;31.34;25.27;102076.78;10472990;28;20045;-79
2022/06/16 10:47:30;;;;;;;8.60;2.22;;;;;;;31.13;26.75;102072.66;10489778;28;20043;-79
2022/06/16 10:52:34;;;;;;;5.22;2.03;;;;;;;30.68;26.42;102085.19;10471163;28;20048;-80
2022/06/16 10:57:41;;;;;;;6.28;2.92;;;;;;;31.01;25.50;102088.19;10470615;28;20035;-80
2022/06/16 11:03:06;;;;;;;6.82;3.17;;;;;;;31.06;25.62;102088.97;10455735;28;20041;-80
2022/06/16 11:08:09;;;;;;;8.85;2.40;;;;;;;30.91;25.66;102071.25;10470263;28;20075;-80
2022/06/16 11:13:14;;;;;;;4.78;2.72;;;;;;;31.29;28.77;102057.94;10486942;28;20043;-80
2022/06/16 11:18:17;;;;;;;4.95;2.22;;;;;;;31.51;26.36;102062.88;10486690;28;20040;-80
2022/06/16 11:23:29;;;;;;;6.20;2.42;;;;;;;31.24;24.55;102057.13;10503986;28;20087;-79
2022/06/16 11:28:30;;;;;;;6.32;2.72;;;;;;;30.28;25.41;102059.72;10486563;28;20044;-79
2022/06/16 11:39:07;;;;;;;4.78;2.97;;;;;;;30.70;26.32;102058.16;10457901;28;20045;-78
2022/06/16 11:44:42;;;;;;;3.30;1.95;;;;;;;30.88;26.59;102073.13;10486665;28;20124;-78
2022/06/16 11:50:05;;;;;;;3.95;2.20;;;;;;;31.68;25.88;102064.31;10486506;28;20520;-80
2022/06/16 11:55:11;;;;;;;7.53;3.25;;;;;;;31.37;24.72;102064.97;10454180;28;20036;-79
2022/06/16 12:00:19;;;;;;;6.22;3.47;;;;;;;30.64;26.43;102058.25;10468512;28;20044;-80
2022/06/16 12:05:33;;;;;;;8.45;3.53;;;;;;;30.74;27.01;102057.19;10468876;28;20397;-79
2022/06/16 12:10:50;;;;;;;4.95;3.28;;;;;;;30.91;27.09;102051.44;10468222;28;20044;-78
2022/06/16 12:16:10;;;;;;;4.95;3.13;;;;;;;31.47;24.45;102043.13;10452608;28;20033;-80
2022/06/16 12:21:33;;;;;;;11.00;3.83;;;;;;;30.79;25.75;102051.66;10470468;28;20064;-80
2022/06/16 12:26:39;;;;;;;5.05;2.72;;;;;;;30.91;25.39;102068.56;10468332;28;20036;-79
2022/06/16 12:31:57;;;;;;;10.95;2.72;;;;;;;31.02;27.43;102071.03;10451822;28;20449;-80
2022/06/16 12:37:01;;;;;;;7.78;2.20;;;;;;;31.82;27.48;102047.81;10467294;28;20036;-80
2022/06/16 12:42:04;;;;;;;4.90;2.53;;;;;;;31.38;24.29;102066.75;10451107;28;20067;-81
2022/06/16 12:47:09;;;;;;;7.13;2.78;;;;;;;30.98;28.70;102069.31;10451422;28;20032;-80
2022/06/16 12:52:17;;;;;;;8.13;3.38;;;;;;;31.38;25.69;102097.41;10450854;28;20032;-81
2022/06/16 12:57:26;;;;;;;11.25;2.95;;;;;;;30.81;28.08;102090.38;10450570;28;20388;-80
2022/06/16 13:02:31;;;;;;;6.43;2.72;;;;;;;30.48;27.34;102102.59;10451352;28;20082;-80
2022/06/16 13:07:32;;;;;;;5.25;2.47;;;;;;;29.48;27.53;102107.56;10449473;28;20049;-82
2022/06/16 13:12:34;;;;;;;9.85;2.40;;;;;;;29.23;29.22;102102.44;10424495;28;20041;-83
2022/06/16 13:17:45;;;;;;;5.07;2.05;;;;;;;30.41;29.28;102087.41;10467294;28;20049;-82
2022/06/16 13:22:54;;;;;;;73.65;10.57;;;;;;;30.87;28.12;102087.53;10451669;28;20460;-82
2022/06/16 13:27:55;;;;;;;3.40;2.30;;;;;;;31.16;25.79;102099.63;10467152;28;20518;-83
2022/06/16 13:33:00;;;;;;;5.53;2.90;;;;;;;31.25;25.75;102090.47;10449196;28;20119;-84
2022/06/16 13:38:03;;;;;;;6.05;2.45;;;;;;;31.16;25.01;102075.28;10467616;28;20063;-82
2022/06/16 13:43:09;;;;;;;4.85;2.40;;;;;;;30.85;29.34;102090.28;10483147;28;20045;-82
2022/06/16 13:48:11;;;;;;;8.57;3.17;;;;;;;31.09;25.87;102077.22;10466827;28;20031;-82
2022/06/16 13:53:13;;;;;;;5.75;1.80;;;;;;;30.86;26.37;102085.75;10465807;28;20503;-82
2022/06/16 13:58:25;;;;;;;5.38;2.80;;;;;;;30.38;25.78;102070.38;10449813;28;20075;-83
2022/06/16 14:03:26;;;;;;;;;;;;;;;30.41;26.70;102078.44;10466772;28;20478;-83
2022/06/16 14:08:26;;;;;;;3.17;1.77;;;;;;;30.33;26.07;102071.34;10464814;28;19916;-82
2022/06/16 14:13:44;;;;;;;4.33;1.67;;;;;;;30.52;24.78;102060.22;10446145;28;20049;-81
2022/06/16 14:19:05;;;;;;;2.95;1.80;;;;;;;30.15;27.45;102060.84;10423847;28;20041;-81
2022/06/16 14:24:12;;;;;;;4.30;1.92;;;;;;;29.53;28.96;102054.47;10382736;28;20034;-82
2022/06/16 14:29:14;;;;;;;5.13;1.80;;;;;;;28.88;28.71;102047.13;10407969;28;20049;-83
2022/06/16 14:34:20;;;;;;;5.22;2.00;;;;;;;27.34;29.93;102039.16;10391986;28;20025;-83
2022/06/16 14:39:26;;;;;;;3.58;2.30;;;;;;;26.56;31.99;102035.72;10424182;28;20040;-82
2022/06/16 14:44:36;;;;;;;4.97;2.00;;;;;;;26.85;33.69;102035.72;10423276;28;20041;-81
2022/06/16 14:49:42;;;;;;;5.95;2.42;;;;;;;26.39;31.43;102048.25;10407236;28;20029;-83
2022/06/16 14:55:10;;;;;;;3.15;1.70;;;;;;;26.36;31.75;102056.28;10399161;28;20044;-84
2022/06/16 15:00:19;;;;;;;5.78;2.33;;;;;;;25.96;33.34;102061.56;10446857;28;20033;-83
2022/06/16 15:05:20;;;;;;;6.20;2.45;;;;;;;25.42;32.94;102056.88;10439513;28;20047;-84
2022/06/16 15:10:24;;;;;;;6.07;2.93;;;;;;;24.92;35.67;102058.41;10462204;28;20028;-83
2022/06/16 15:15:26;;;;;;;5.85;1.83;;;;;;;24.93;34.55;102068.22;10436628;28;20043;-84
2022/06/16 15:20:27;;;;;;;10.15;3.10;;;;;;;24.67;36.29;102068.00;10452391;28;20063;-83
2022/06/16 15:25:33;;;;;;;18.87;2.67;;;;;;;24.84;37.88;102055.66;10436426;28;20140;-84
2022/06/16 15:30:34;;;;;;;4.65;2.42;;;;;;;25.05;34.06;102051.34;10470998;28;20049;-84
2022/06/16 15:40:54;;;;;;;5.70;2.75;;;;;;;24.47;35.37;102058.03;10430713;28;20378;-84
2022/06/16 15:45:58;;;;;;;6.20;2.17;;;;;;;24.55;34.63;102056.31;10470075;28;20041;-83
2022/06/16 15:51:07;;;;;;;5.78;2.17;;;;;;;24.49;35.41;102062.50;10419376;28;20504;-81
2022/06/16 15:56:08;;;;;;;4.97;1.92;;;;;;;24.37;38.22;102066.84;10446979;28;20082;-80
2022/06/16 16:01:10;;;;;;;2.60;2.30;;;;;;;24.45;37.27;102067.81;10432884;28;20501;-80
2022/06/16 16:06:10;;;;;;;;;;;;;;;24.38;37.56;102082.00;10450182;28;20439;-80
2022/06/16 16:11:23;;;;;;;7.27;2.73;;;;;;;24.32;37.58;102082.88;10470032;28;19927;-80
2022/06/16 16:16:24;;;;;;;8.90;2.20;;;;;;;24.29;38.04;102065.00;10389968;28;20275;-81
2022/06/16 16:21:24;;;;;;;9.00;2.10;;;;;;;24.11;39.18;102051.44;10467936;28;20059;-83
2022/06/16 16:26:25;;;;;;;3.53;1.80;;;;;;;23.79;37.30;102055.53;10413694;28;20552;-81
2022/06/16 16:31:27;;;;;;;6.70;2.27;;;;;;;23.55;37.47;102048.13;10445119;28;20047;-82
2022/06/16 16:36:38;;;;;;;4.20;1.95;;;;;;;23.72;38.10;102051.88;10432619;28;20564;-82
2022/06/16 16:47:05;;;;;;;2.90;1.90;;;;;;;23.66;39.01;102066.97;10464366;28;20040;-82
2022/06/16 16:52:06;;;;;;;6.63;4.93;;;;;;;23.66;39.67;102065.19;10465284;28;20384;-83
2022/06/16 16:57:09;;;;;;;4.17;1.87;;;;;;;23.56;39.42;102072.19;10480289;28;20112;-82
2022/06/16 17:02:10;;;;;;;10.55;3.47;;;;;;;23.52;39.61;102050.75;10445922;28;20048;-82
2022/06/16 17:07:10;;;;;;;3.97;2.23;;;;;;;23.71;40.91;102046.53;10496350;28;20123;-81
2022/06/16 17:12:12;;;;;;;5.77;2.57;;;;;;;24.16;39.80;102053.28;10441806;28;20050;-86
2022/06/16 17:17:13;;;;;;;5.80;3.97;;;;;;;24.46;40.15;102046.44;10413183;28;20067;-91
2022/06/16 17:22:14;;;;;;;4.88;1.95;;;;;;;24.01;38.79;102034.44;10414706;28;20128;-90
2022/06/16 17:27:33;;;;;;;6.60;2.73;;;;;;;23.24;41.87;102042.38;10416553;28;20053;-83
2022/06/16 17:32:35;;;;;;;3.38;2.58;;;;;;;22.79;41.47;102031.91;10463165;28;20484;-83
2022/06/16 17:37:38;;;;;;;4.00;2.88;;;;;;;22.52;44.45;102040.38;10446031;28;20178;-82
2022/06/16 17:42:39;;;;;;;6.35;3.25;;;;;;;22.54;44.04;102039.53;10433538;28;20033;-81
2022/06/16 17:47:41;;;;;;;4.95;2.58;;;;;;;22.53;43.40;102044.84;10440102;28;20395;-82
2022/06/16 18:03:20;;;;;;;6.00;2.20;;;;;;;22.78;44.15;102079.94;10435361;28;20882;-81
2022/06/16 18:08:34;;;;;;;9.32;2.47;;;;;;;22.50;46.93;102063.47;10430023;28;20174;-81
2022/06/16 18:13:39;;;;;;;6.28;2.53;;;;;;;22.06;47.73;102064.41;10453994;28;20041;-81
2022/06/16 18:18:42;;;;;;;4.57;2.13;;;;;;;21.81;45.83;102080.84;10432535;28;20119;-81
2022/06/16 18:23:43;;;;;;;7.43;1.98;;;;;;;21.79;46.03;102063.91;10482219;28;20044;-81
2022/06/16 18:28:45;;;;;;;4.13;2.22;;;;;;;21.66;48.68;102051.22;10443140;28;20049;-82
2022/06/16 18:33:46;;;;;;;4.50;2.20;;;;;;;21.49;46.31;102051.72;10422731;28;20048;-81
2022/06/16 18:38:47;;;;;;;7.97;3.30;;;;;;;21.18;48.83;102058.13;10431956;28;20429;-82
2022/06/16 18:43:49;;;;;;;2.90;2.10;;;;;;;20.59;51.23;102073.56;10464375;28;20028;-83
2022/06/16 18:48:52;;;;;;;;;;;;;;;20.12;53.17;102076.78;10451699;28;20107;-84
2022/06/16 18:53:53;;;;;;;5.20;2.38;;;;;;;19.61;53.50;102080.63;10489777;28;19921;-84
2022/06/16 18:58:53;;;;;;;13.68;3.35;;;;;;;19.10;56.46;102081.72;10412640;28;20029;-84
2022/06/16 19:03:54;;;;;;;5.07;2.60;;;;;;;18.67;59.16;102054.66;10446787;28;20108;-84
2022/06/16 19:08:56;;;;;;;15.40;9.38;;;;;;;18.23;59.59;102055.84;10451941;28;20069;-84
2022/06/16 19:13:57;;;;;;;;;;;;;;;17.99;61.04;102055.84;10437596;28;20052;-85
2022/06/16 19:18:57;;;;;;;7.50;3.88;;;;;;;17.84;62.79;102057.09;10486369;28;19920;-85
2022/06/16 19:24:00;;;;;;;3.72;2.58;;;;;;;17.59;64.15;102082.63;10437479;28;20116;-84
2022/06/16 19:29:00;;;;;;;5.20;2.10;;;;;;;17.38;65.60;102088.03;10445739;28;20028;-84
2022/06/16 19:34:01;;;;;;;10.35;5.35;;;;;;;17.09;66.03;102089.50;10452031;28;20063;-84
2022/06/16 19:39:01;;;;;;;8.85;2.90;;;;;;;16.82;66.93;102092.78;10453322;28;20047;-83
2022/06/16 19:54:45;;;;;;;5.70;2.40;;;;;;;16.16;69.54;102123.47;10487021;28;20040;-84
2022/06/16 19:59:47;;;;;;;5.18;3.53;;;;;;;16.05;71.72;102124.72;10435442;28;20029;-84
2022/06/16 20:04:47;;;;;;;8.38;6.32;;;;;;;15.81;72.14;102136.81;10468665;28;20098;-83
2022/06/16 20:09:48;;;;;;;5.80;3.42;;;;;;;15.57;69.85;102119.00;10450184;28;20070;-83
2022/06/16 20:14:49;;;;;;;6.25;3.13;;;;;;;15.35;70.24;102130.28;10441960;28;20036;-83
2022/06/16 20:19:49;;;;;;;7.43;4.30;;;;;;;15.24;71.63;102137.66;10433952;28;20064;-85
2022/06/16 20:24:50;;;;;;;9.63;4.65;;;;;;;15.15;72.35;102145.13;10467039;28;20052;-84
2022/06/16 20:29:50;;;;;;;8.65;6.15;;;;;;;15.00;72.30;102141.72;10432726;28;20059;-84
2022/06/16 20:34:51;;;;;;;6.85;3.83;;;;;;;14.89;71.90;102136.81;10465466;28;20580;-84
2022/06/16 20:39:51;;;;;;;6.75;4.50;;;;;;;14.78;72.91;102152.13;10447938;28;20040;-84
2022/06/16 20:44:59;;;;;;;5.75;3.42;;;;;;;14.71;73.50;102159.63;10464925;28;20048;-84
2022/06/16 20:49:59;;;;;;;6.53;3.50;;;;;;;14.66;73.76;102162.00;10449761;28;20111;-83
2022/06/16 20:55:00;;;;;;;7.32;3.63;;;;;;;14.51;73.46;102170.00;10447009;28;20479;-83
2022/06/16 21:05:24;;;;;;;4.93;3.53;;;;;;;14.32;74.96;102173.41;10450887;28;20067;-82
2022/06/16 21:10:27;;;;;;;10.48;6.95;;;;;;;14.23;75.13;102179.06;10447819;28;20037;-83
2022/06/16 21:15:27;;;;;;;11.23;5.15;;;;;;;14.08;75.76;102179.16;10445960;28;20044;-83
2022/06/16 21:20:33;;;;;;;9.32;4.60;;;;;;;14.02;76.53;102179.72;10454019;28;20198;-85
2022/06/16 21:25:33;;;;;;;8.07;4.22;;;;;;;13.89;77.44;102188.69;10448150;28;20052;-86
2022/06/16 21:30:35;;;;;;;12.05;5.38;;;;;;;13.76;78.60;102180.94;10482061;28;20496;-83
2022/06/16 21:35:36;;;;;;;6.82;3.63;;;;;;;13.62;79.90;102183.69;10464906;28;20131;-82
2022/06/16 21:40:36;;;;;;;7.32;4.90;;;;;;;13.49;79.67;102195.22;10446189;28;20052;-81
2022/06/16 21:45:38;;;;;;;7.63;4.05;;;;;;;13.39;79.88;102191.97;10463857;28;20037;-81
2022/06/16 21:50:42;;;;;;;7.37;5.30;;;;;;;13.24;80.13;102205.13;10431370;28;20124;-82
2022/06/16 21:55:43;;;;;;;7.78;5.03;;;;;;;13.16;80.39;102194.16;10430959;28;20060;-83
2022/06/16 22:00:43;;;;;;;7.20;4.45;;;;;;;13.01;81.02;102199.41;10447570;28;20555;-82
2022/06/16 22:05:45;;;;;;;7.75;4.88;;;;;;;12.93;81.91;102207.75;10446506;28;20569;-82
2022/06/16 22:12:20;;;;;;;7.32;4.88;;;;;;;12.92;82.59;102203.31;10481761;28;20120;-82
2022/06/16 22:16:10;;;;;;;12.13;6.72;;;;;;;12.81;83.34;102206.13;10426320;28;20037;-83
2022/06/16 22:21:13;;;;;;;9.25;5.10;;;;;;;12.66;83.81;102216.59;10448481;28;20037;-83
2022/06/16 22:26:18;;;;;;;7.75;4.78;;;;;;;12.57;83.91;102216.97;10456960;28;20037;-83
2022/06/16 22:31:23;;;;;;;7.90;5.10;;;;;;;12.49;84.92;102211.22;10462537;28;20033;-82
2022/06/16 22:36:25;;;;;;;12.57;6.90;;;;;;;12.58;84.77;102208.28;10455716;28;20119;-82
2022/06/16 22:41:34;;;;;;;28.70;6.45;;;;;;;12.53;84.20;102207.97;10469848;28;20044;-79
2022/06/16 22:46:36;;;;;;;9.60;5.95;;;;;;;12.44;84.98;102195.22;10457017;28;20049;-80
2022/06/16 22:51:37;;;;;;;8.73;6.63;;;;;;;12.50;86.10;102209.53;10449529;28;20040;-80
2022/06/16 22:56:38;;;;;;;12.25;5.18;;;;;;;12.46;86.18;102209.34;10388995;28;20568;-80
2022/06/16 23:01:38;;;;;;;8.07;6.18;;;;;;;12.39;86.21;102198.34;10450178;28;20047;-80
2022/06/16 23:06:46;;;;;;;8.32;6.20;;;;;;;12.25;86.17;102195.78;10456274;28;20087;-80
2022/06/16 23:11:47;;;;;;;7.47;5.90;;;;;;;12.07;86.50;102190.31;10404649;28;20088;-80
2022/06/16 23:16:48;;;;;;;8.90;7.30;;;;;;;11.91;86.96;102198.88;10389376;28;20370;-80
2022/06/16 23:21:50;;;;;;;10.07;6.22;;;;;;;11.82;87.65;102198.28;10446594;28;20488;-80
2022/06/16 23:26:50;;;;;;;8.98;6.82;;;;;;;11.73;88.11;102204.75;10488990;28;20066;-81
2022/06/16 23:31:53;;;;;;;9.93;8.05;;;;;;;11.74;88.44;102209.19;10452051;28;20466;-81
2022/06/16 23:36:53;;;;;;;11.07;7.20;;;;;;;11.68;88.37;102200.03;10409963;28;20040;-81
2022/06/16 23:41:54;;;;;;;12.23;7.90;;;;;;;11.57;89.01;102197.63;10489145;28;20063;-81
2022/06/16 23:46:54;;;;;;;14.30;9.27;;;;;;;11.53;90.00;102192.06;10453342;28;20035;-80
2022/06/16 23:51:55;;;;;;;15.20;10.68;;;;;;;11.49;90.49;102192.69;10469566;28;20116;-80
2022/06/16 23:56:56;;;;;;;13.32;11.93;;;;;;;11.45;91.51;102202.09;10487684;28;20028;-80
